sensor_id;sensor_type;location;lat;lon;timestamp;pressure;altitude;pressure_sealevel;temperature;humidity
69351;BME280;57106;51.446;-2.606;2023-07-31T00:01:05;100687.81;;;18.24;86.20
69351;BME280;57106;51.446;-2.606;2023-07-31T00:03:31;100690.39;;;18.19;86.59
69351;BME280;57106;51.446;-2.606;2023-07-31T00:05:56;100700.41;;;18.14;87.01
69351;BME280;57106;51.446;-2.606;2023-07-31T00:08:21;100710.92;;;18.14;87.64
69351;BME280;57106;51.446;-2.606;2023-07-31T00:10:47;100712.94;;;18.22;86.90
69351;BME280;57106;51.446;-2.606;2023-07-31T00:13:13;100717.73;;;18.15;87.33
69351;BME280;57106;51.446;-2.606;2023-07-31T00:15:37;100711.68;;;17.98;88.03
69351;BME280;57106;51.446;-2.606;2023-07-31T00:18:03;100707.71;;;18.25;87.45
69351;BME280;57106;51.446;-2.606;2023-07-31T00:20:28;100701.25;;;18.34;86.56
69351;BME280;57106;51.446;-2.606;2023-07-31T00:22:53;100697.26;;;18.34;86.63
69351;BME280;57106;51.446;-2.606;2023-07-31T00:25:19;100689.53;;;18.34;86.51
69351;BME280;57106;51.446;-2.606;2023-07-31T00:27:44;100683.43;;;18.43;86.25
69351;BME280;57106;51.446;-2.606;2023-07-31T00:30:10;100680.46;;;18.34;86.43
69351;BME280;57106;51.446;-2.606;2023-07-31T00:59:14;100652.08;;;18.10;89.42
69351;BME280;57106;51.446;-2.606;2023-07-31T01:01:40;100653.54;;;18.08;89.74
69351;BME280;57106;51.446;-2.606;2023-07-31T01:04:05;100648.51;;;18.02;90.15
69351;BME280;57106;51.446;-2.606;2023-07-31T01:06:36;100647.33;;;17.98;90.98
69351;BME280;57106;51.446;-2.606;2023-07-31T01:09:00;100645.11;;;18.14;90.18
69351;BME280;57106;51.446;-2.606;2023-07-31T01:26:00;100617.83;;;18.16;89.89
69351;BME280;57106;51.446;-2.606;2023-07-31T01:28:20;100620.11;;;18.08;90.68
69351;BME280;57106;51.446;-2.606;2023-07-31T01:30:48;100623.18;;;18.22;90.62
69351;BME280;57106;51.446;-2.606;2023-07-31T01:33:09;100621.39;;;18.16;90.34
69351;BME280;57106;51.446;-2.606;2023-07-31T01:35:35;100618.98;;;18.31;89.67
69351;BME280;57106;51.446;-2.606;2023-07-31T01:42:50;100614.36;;;18.31;90.24
69351;BME280;57106;51.446;-2.606;2023-07-31T01:45:16;100616.23;;;18.41;89.93
69351;BME280;57106;51.446;-2.606;2023-07-31T01:47:41;100618.90;;;18.46;89.37
69351;BME280;57106;51.446;-2.606;2023-07-31T01:50:07;100617.40;;;18.50;89.11
69351;BME280;57106;51.446;-2.606;2023-07-31T01:52:32;100612.84;;;18.44;89.23
69351;BME280;57106;51.446;-2.606;2023-07-31T01:54:57;100614.03;;;18.32;89.63
69351;BME280;57106;51.446;-2.606;2023-07-31T01:57:23;100612.57;;;18.28;90.07
69351;BME280;57106;51.446;-2.606;2023-07-31T01:59:48;100607.50;;;18.16;90.59
69351;BME280;57106;51.446;-2.606;2023-07-31T02:02:13;100613.23;;;18.20;91.13
69351;BME280;57106;51.446;-2.606;2023-07-31T02:04:39;100613.28;;;18.18;91.34
69351;BME280;57106;51.446;-2.606;2023-07-31T02:07:05;100609.77;;;18.17;91.27
69351;BME280;57106;51.446;-2.606;2023-07-31T02:09:30;100618.66;;;18.19;91.18
69351;BME280;57106;51.446;-2.606;2023-07-31T02:11:55;100611.62;;;18.13;92.13
69351;BME280;57106;51.446;-2.606;2023-07-31T02:14:21;100607.68;;;18.10;92.53
69351;BME280;57106;51.446;-2.606;2023-07-31T02:16:46;100611.88;;;18.00;93.86
69351;BME280;57106;51.446;-2.606;2023-07-31T02:19:11;100611.68;;;17.93;94.44
69351;BME280;57106;51.446;-2.606;2023-07-31T02:21:36;100596.43;;;17.89;95.04
69351;BME280;57106;51.446;-2.606;2023-07-31T02:24:01;100606.17;;;17.82;95.61
69351;BME280;57106;51.446;-2.606;2023-07-31T02:26:27;100594.76;;;17.82;96.06
69351;BME280;57106;51.446;-2.606;2023-07-31T02:28:52;100593.17;;;17.88;95.59
69351;BME280;57106;51.446;-2.606;2023-07-31T02:31:18;100596.04;;;17.74;95.64
69351;BME280;57106;51.446;-2.606;2023-07-31T02:33:43;100581.68;;;17.61;96.05
69351;BME280;57106;51.446;-2.606;2023-07-31T02:36:09;100582.47;;;17.74;95.81
69351;BME280;57106;51.446;-2.606;2023-07-31T02:38:34;100591.99;;;17.86;94.44
69351;BME280;57106;51.446;-2.606;2023-07-31T03:19:46;100568.76;;;18.02;92.62
69351;BME280;57106;51.446;-2.606;2023-07-31T03:22:11;100564.77;;;18.18;91.88
69351;BME280;57106;51.446;-2.606;2023-07-31T03:24:36;100559.87;;;17.99;92.87
69351;BME280;57106;51.446;-2.606;2023-07-31T03:27:02;100566.97;;;18.16;92.06
69351;BME280;57106;51.446;-2.606;2023-07-31T03:29:27;100568.81;;;18.19;91.31
69351;BME280;57106;51.446;-2.606;2023-07-31T03:31:52;100575.42;;;18.22;90.16
69351;BME280;57106;51.446;-2.606;2023-07-31T03:34:18;100566.66;;;17.97;91.05
69351;BME280;57106;51.446;-2.606;2023-07-31T03:36:43;100565.63;;;17.85;92.15
69351;BME280;57106;51.446;-2.606;2023-07-31T03:39:08;100565.86;;;17.82;93.13
69351;BME280;57106;51.446;-2.606;2023-07-31T03:41:34;100568.79;;;17.89;92.08
69351;BME280;57106;51.446;-2.606;2023-07-31T03:44:00;100572.27;;;17.87;92.35
69351;BME280;57106;51.446;-2.606;2023-07-31T03:46:25;100562.43;;;17.87;92.19
69351;BME280;57106;51.446;-2.606;2023-07-31T03:48:52;100568.20;;;18.06;91.47
69351;BME280;57106;51.446;-2.606;2023-07-31T03:51:15;100565.32;;;18.07;90.15
69351;BME280;57106;51.446;-2.606;2023-07-31T03:53:41;100567.10;;;17.90;91.15
69351;BME280;57106;51.446;-2.606;2023-07-31T03:56:06;100578.83;;;18.00;90.00
69351;BME280;57106;51.446;-2.606;2023-07-31T03:58:32;100573.76;;;17.82;89.52
69351;BME280;57106;51.446;-2.606;2023-07-31T04:00:57;100579.91;;;18.06;88.92
69351;BME280;57106;51.446;-2.606;2023-07-31T04:03:22;100577.11;;;18.07;87.68
69351;BME280;57106;51.446;-2.606;2023-07-31T04:05:48;100574.76;;;18.07;87.66
69351;BME280;57106;51.446;-2.606;2023-07-31T04:08:13;100577.46;;;18.03;87.21
69351;BME280;57106;51.446;-2.606;2023-07-31T04:10:38;100568.34;;;17.79;88.91
69351;BME280;57106;51.446;-2.606;2023-07-31T04:13:06;100565.69;;;17.78;88.94
69351;BME280;57106;51.446;-2.606;2023-07-31T04:15:30;100563.89;;;17.75;89.57
69351;BME280;57106;51.446;-2.606;2023-07-31T04:17:55;100567.68;;;17.92;89.64
69351;BME280;57106;51.446;-2.606;2023-07-31T04:20:20;100566.11;;;17.63;90.96
69351;BME280;57106;51.446;-2.606;2023-07-31T04:22:45;100569.07;;;17.50;92.21
69351;BME280;57106;51.446;-2.606;2023-07-31T04:25:11;100567.64;;;17.54;92.11
69351;BME280;57106;51.446;-2.606;2023-07-31T04:27:36;100570.25;;;17.63;92.01
69351;BME280;57106;51.446;-2.606;2023-07-31T04:30:01;100568.63;;;17.56;91.20
69351;BME280;57106;51.446;-2.606;2023-07-31T04:32:27;100577.52;;;17.78;90.39
69351;BME280;57106;51.446;-2.606;2023-07-31T04:34:52;100577.14;;;17.67;90.55
69351;BME280;57106;51.446;-2.606;2023-07-31T04:37:18;100569.55;;;17.76;90.02
69351;BME280;57106;51.446;-2.606;2023-07-31T04:39:43;100571.24;;;17.77;89.28
69351;BME280;57106;51.446;-2.606;2023-07-31T04:42:08;100569.09;;;17.85;88.82
69351;BME280;57106;51.446;-2.606;2023-07-31T04:44:34;100568.81;;;17.91;88.59
69351;BME280;57106;51.446;-2.606;2023-07-31T04:46:59;100574.38;;;18.10;87.74
69351;BME280;57106;51.446;-2.606;2023-07-31T04:49:24;100579.02;;;18.13;87.83
69351;BME280;57106;51.446;-2.606;2023-07-31T04:51:51;100577.90;;;17.97;88.43
69351;BME280;57106;51.446;-2.606;2023-07-31T04:54:15;100578.53;;;17.86;89.02
69351;BME280;57106;51.446;-2.606;2023-07-31T04:56:41;100576.70;;;18.09;88.05
69351;BME280;57106;51.446;-2.606;2023-07-31T04:59:06;100574.33;;;18.23;87.44
69351;BME280;57106;51.446;-2.606;2023-07-31T05:01:32;100580.38;;;18.20;86.78
69351;BME280;57106;51.446;-2.606;2023-07-31T05:06:22;100571.81;;;18.25;86.82
69351;BME280;57106;51.446;-2.606;2023-07-31T05:08:48;100570.80;;;18.44;85.28
69351;BME280;57106;51.446;-2.606;2023-07-31T05:11:13;100569.60;;;18.30;85.49
69351;BME280;57106;51.446;-2.606;2023-07-31T05:13:38;100569.07;;;18.51;84.68
69351;BME280;57106;51.446;-2.606;2023-07-31T05:16:04;100563.70;;;18.36;85.35
69351;BME280;57106;51.446;-2.606;2023-07-31T05:18:30;100562.99;;;18.39;84.34
69351;BME280;57106;51.446;-2.606;2023-07-31T05:20:54;100560.95;;;18.20;85.86
69351;BME280;57106;51.446;-2.606;2023-07-31T05:23:20;100563.50;;;18.21;86.25
69351;BME280;57106;51.446;-2.606;2023-07-31T05:25:45;100561.71;;;18.19;85.52
69351;BME280;57106;51.446;-2.606;2023-07-31T05:28:11;100559.93;;;18.11;86.06
69351;BME280;57106;51.446;-2.606;2023-07-31T05:30:36;100556.89;;;18.04;86.03
69351;BME280;57106;51.446;-2.606;2023-07-31T05:33:05;100555.76;;;18.15;85.96
69351;BME280;57106;51.446;-2.606;2023-07-31T05:35:27;100554.36;;;18.09;85.75
69351;BME280;57106;51.446;-2.606;2023-07-31T05:37:52;100551.99;;;18.01;86.44
69351;BME280;57106;51.446;-2.606;2023-07-31T05:40:17;100553.93;;;18.03;86.46
69351;BME280;57106;51.446;-2.606;2023-07-31T05:42:43;100563.52;;;18.10;86.28
69351;BME280;57106;51.446;-2.606;2023-07-31T05:45:09;100562.19;;;18.20;85.73
69351;BME280;57106;51.446;-2.606;2023-07-31T05:47:34;100555.52;;;18.10;85.73
69351;BME280;57106;51.446;-2.606;2023-07-31T05:49:59;100548.49;;;18.16;85.77
69351;BME280;57106;51.446;-2.606;2023-07-31T05:52:24;100553.00;;;18.18;85.72
69351;BME280;57106;51.446;-2.606;2023-07-31T05:54:50;100544.75;;;17.94;87.36
69351;BME280;57106;51.446;-2.606;2023-07-31T05:57:20;100541.12;;;17.97;87.81
69351;BME280;57106;51.446;-2.606;2023-07-31T05:59:40;100541.89;;;17.80;88.16
69351;BME280;57106;51.446;-2.606;2023-07-31T06:06:56;100531.64;;;17.84;88.54
69351;BME280;57106;51.446;-2.606;2023-07-31T06:09:22;100538.65;;;18.07;88.10
69351;BME280;57106;51.446;-2.606;2023-07-31T06:11:47;100530.47;;;18.11;88.18
69351;BME280;57106;51.446;-2.606;2023-07-31T06:14:13;100524.86;;;18.13;86.96
69351;BME280;57106;51.446;-2.606;2023-07-31T06:16:38;100532.88;;;17.99;87.64
69351;BME280;57106;51.446;-2.606;2023-07-31T06:19:03;100524.55;;;17.97;87.00
69351;BME280;57106;51.446;-2.606;2023-07-31T06:21:29;100530.44;;;17.96;87.41
69351;BME280;57106;51.446;-2.606;2023-07-31T06:23:54;100532.64;;;17.87;86.89
69351;BME280;57106;51.446;-2.606;2023-07-31T06:28:45;100533.64;;;17.99;85.79
69351;BME280;57106;51.446;-2.606;2023-07-31T06:31:10;100528.56;;;18.17;84.57
69351;BME280;57106;51.446;-2.606;2023-07-31T06:33:36;100521.50;;;18.25;84.08
69351;BME280;57106;51.446;-2.606;2023-07-31T06:36:01;100527.73;;;18.34;83.36
69351;BME280;57106;51.446;-2.606;2023-07-31T06:38:27;100527.99;;;18.24;82.96
69351;BME280;57106;51.446;-2.606;2023-07-31T06:40:51;100525.34;;;18.30;83.30
69351;BME280;57106;51.446;-2.606;2023-07-31T06:43:17;100527.09;;;18.28;82.35
69351;BME280;57106;51.446;-2.606;2023-07-31T06:45:42;100537.55;;;18.27;82.68
69351;BME280;57106;51.446;-2.606;2023-07-31T06:48:07;100543.69;;;18.27;82.32
69351;BME280;57106;51.446;-2.606;2023-07-31T06:52:58;100536.06;;;18.73;80.85
69351;BME280;57106;51.446;-2.606;2023-07-31T06:55:24;100532.00;;;18.97;80.12
69351;BME280;57106;51.446;-2.606;2023-07-31T06:57:52;100527.12;;;19.10;78.80
69351;BME280;57106;51.446;-2.606;2023-07-31T07:00:14;100518.92;;;18.97;79.08
69351;BME280;57106;51.446;-2.606;2023-07-31T07:02:39;100513.79;;;19.02;78.25
69351;BME280;57106;51.446;-2.606;2023-07-31T07:05:06;100512.56;;;18.96;78.70
69351;BME280;57106;51.446;-2.606;2023-07-31T07:07:31;100507.31;;;19.19;78.21
69351;BME280;57106;51.446;-2.606;2023-07-31T07:10:02;100509.36;;;19.44;77.38
69351;BME280;57106;51.446;-2.606;2023-07-31T07:12:21;100516.97;;;19.23;76.40
69351;BME280;57106;51.446;-2.606;2023-07-31T07:14:46;100517.49;;;19.21;76.81
69351;BME280;57106;51.446;-2.606;2023-07-31T07:17:15;100516.86;;;19.08;77.22
69351;BME280;57106;51.446;-2.606;2023-07-31T07:19:40;100517.45;;;19.20;76.78
69351;BME280;57106;51.446;-2.606;2023-07-31T07:22:05;100512.94;;;19.28;76.65
69351;BME280;57106;51.446;-2.606;2023-07-31T07:24:28;100508.27;;;19.44;75.39
69351;BME280;57106;51.446;-2.606;2023-07-31T07:26:53;100517.80;;;19.35;75.98
69351;BME280;57106;51.446;-2.606;2023-07-31T07:29:23;100507.35;;;19.32;75.31
69351;BME280;57106;51.446;-2.606;2023-07-31T07:31:43;100508.30;;;19.46;75.33
69351;BME280;57106;51.446;-2.606;2023-07-31T07:34:09;100505.35;;;19.42;75.34
69351;BME280;57106;51.446;-2.606;2023-07-31T07:36:39;100512.21;;;19.12;75.59
69351;BME280;57106;51.446;-2.606;2023-07-31T07:38:59;100495.93;;;18.85;75.99
69351;BME280;57106;51.446;-2.606;2023-07-31T07:41:25;100501.15;;;18.93;75.48
69351;BME280;57106;51.446;-2.606;2023-07-31T07:43:50;100492.33;;;18.91;75.95
69351;BME280;57106;51.446;-2.606;2023-07-31T07:46:16;100495.71;;;19.02;75.35
69351;BME280;57106;51.446;-2.606;2023-07-31T07:48:41;100501.34;;;19.04;75.95
69351;BME280;57106;51.446;-2.606;2023-07-31T07:51:06;100505.59;;;19.04;75.46
69351;BME280;57106;51.446;-2.606;2023-07-31T07:53:32;100511.89;;;18.98;75.88
69351;BME280;57106;51.446;-2.606;2023-07-31T07:55:57;100501.27;;;19.02;75.63
69351;BME280;57106;51.446;-2.606;2023-07-31T07:58:22;100488.26;;;19.19;75.05
69351;BME280;57106;51.446;-2.606;2023-07-31T08:00:50;100479.49;;;19.26;74.92
69351;BME280;57106;51.446;-2.606;2023-07-31T08:03:13;100476.31;;;19.21;74.57
69351;BME280;57106;51.446;-2.606;2023-07-31T08:05:38;100479.91;;;19.12;75.15
69351;BME280;57106;51.446;-2.606;2023-07-31T08:08:04;100478.93;;;19.33;74.13
69351;BME280;57106;51.446;-2.606;2023-07-31T08:10:29;100459.97;;;19.15;74.61
69351;BME280;57106;51.446;-2.606;2023-07-31T08:12:54;100466.44;;;19.19;74.67
69351;BME280;57106;51.446;-2.606;2023-07-31T08:15:20;100468.62;;;19.00;74.91
69351;BME280;57106;51.446;-2.606;2023-07-31T08:17:45;100450.82;;;19.16;74.73
69351;BME280;57106;51.446;-2.606;2023-07-31T08:20:11;100444.61;;;18.90;75.12
69351;BME280;57106;51.446;-2.606;2023-07-31T08:22:35;100434.88;;;18.93;75.88
69351;BME280;57106;51.446;-2.606;2023-07-31T08:25:01;100426.25;;;19.22;75.20
69351;BME280;57106;51.446;-2.606;2023-07-31T08:27:26;100433.23;;;19.21;74.69
69351;BME280;57106;51.446;-2.606;2023-07-31T08:29:52;100442.59;;;19.31;75.19
69351;BME280;57106;51.446;-2.606;2023-07-31T08:32:17;100456.25;;;19.37;74.66
69351;BME280;57106;51.446;-2.606;2023-07-31T08:34:42;100465.15;;;19.38;74.79
69351;BME280;57106;51.446;-2.606;2023-07-31T08:37:07;100458.53;;;19.33;73.38
69351;BME280;57106;51.446;-2.606;2023-07-31T08:39:33;100463.52;;;19.29;74.15
69351;BME280;57106;51.446;-2.606;2023-07-31T08:41:58;100499.23;;;19.28;74.17
69351;BME280;57106;51.446;-2.606;2023-07-31T08:44:23;100491.34;;;19.31;74.41
69351;BME280;57106;51.446;-2.606;2023-07-31T08:46:50;100476.88;;;19.40;73.57
69351;BME280;57106;51.446;-2.606;2023-07-31T08:49:15;100475.90;;;19.25;73.92
69351;BME280;57106;51.446;-2.606;2023-07-31T08:51:40;100482.41;;;19.02;74.26
69351;BME280;57106;51.446;-2.606;2023-07-31T08:54:05;100478.03;;;19.06;74.33
69351;BME280;57106;51.446;-2.606;2023-07-31T09:13:29;100496.58;;;19.24;74.05
69351;BME280;57106;51.446;-2.606;2023-07-31T09:25:35;100466.92;;;18.37;76.80
69351;BME280;57106;51.446;-2.606;2023-07-31T09:28:00;100466.90;;;18.64;76.00
69351;BME280;57106;51.446;-2.606;2023-07-31T09:30:25;100455.75;;;18.75;75.45
69351;BME280;57106;51.446;-2.606;2023-07-31T09:32:52;100461.12;;;18.85;74.33
69351;BME280;57106;51.446;-2.606;2023-07-31T09:35:20;100450.88;;;19.01;74.15
69351;BME280;57106;51.446;-2.606;2023-07-31T09:37:41;100452.72;;;19.29;72.75
69351;BME280;57106;51.446;-2.606;2023-07-31T09:40:08;100450.02;;;19.41;71.81
69351;BME280;57106;51.446;-2.606;2023-07-31T09:42:34;100458.33;;;19.40;71.59
69351;BME280;57106;51.446;-2.606;2023-07-31T09:45:08;100477.95;;;19.63;72.27
69351;BME280;57106;51.446;-2.606;2023-07-31T09:47:23;100481.60;;;19.56;71.98
69351;BME280;57106;51.446;-2.606;2023-07-31T09:49:53;100472.17;;;19.79;71.18
69351;BME280;57106;51.446;-2.606;2023-07-31T09:52:13;100471.98;;;19.84;70.97
69351;BME280;57106;51.446;-2.606;2023-07-31T09:54:39;100480.19;;;19.81;71.11
69351;BME280;57106;51.446;-2.606;2023-07-31T09:57:05;100492.63;;;19.71;71.32
69351;BME280;57106;51.446;-2.606;2023-07-31T09:59:29;100487.38;;;19.66;71.32
69351;BME280;57106;51.446;-2.606;2023-07-31T10:01:56;100507.07;;;19.67;71.28
69351;BME280;57106;51.446;-2.606;2023-07-31T10:04:25;100513.09;;;19.38;70.43
69351;BME280;57106;51.446;-2.606;2023-07-31T10:06:46;100515.88;;;19.20;71.82
69351;BME280;57106;51.446;-2.606;2023-07-31T10:09:16;100523.67;;;19.07;71.07
69351;BME280;57106;51.446;-2.606;2023-07-31T10:11:38;100528.30;;;18.89;71.17
69351;BME280;57106;51.446;-2.606;2023-07-31T10:14:02;100542.10;;;18.73;71.48
69351;BME280;57106;51.446;-2.606;2023-07-31T10:16:27;100541.29;;;18.66;71.47
69351;BME280;57106;51.446;-2.606;2023-07-31T10:18:53;100528.14;;;18.81;71.73
69351;BME280;57106;51.446;-2.606;2023-07-31T10:21:18;100527.14;;;18.84;71.51
69351;BME280;57106;51.446;-2.606;2023-07-31T10:23:44;100528.75;;;18.73;71.48
69351;BME280;57106;51.446;-2.606;2023-07-31T10:26:10;100535.37;;;18.99;71.27
69351;BME280;57106;51.446;-2.606;2023-07-31T10:28:34;100553.30;;;18.77;72.20
69351;BME280;57106;51.446;-2.606;2023-07-31T10:30:59;100554.48;;;18.92;71.53
69351;BME280;57106;51.446;-2.606;2023-07-31T10:33:25;100540.02;;;19.14;69.93
69351;BME280;57106;51.446;-2.606;2023-07-31T10:35:51;100545.83;;;19.28;69.44
69351;BME280;57106;51.446;-2.606;2023-07-31T10:38:15;100537.29;;;19.18;69.67
69351;BME280;57106;51.446;-2.606;2023-07-31T10:40:41;100528.47;;;19.29;69.13
69351;BME280;57106;51.446;-2.606;2023-07-31T10:43:06;100524.47;;;19.50;69.45
69351;BME280;57106;51.446;-2.606;2023-07-31T10:45:38;100528.86;;;19.24;68.93
69351;BME280;57106;51.446;-2.606;2023-07-31T10:48:01;100535.98;;;19.08;69.56
69351;BME280;57106;51.446;-2.606;2023-07-31T10:50:23;100529.00;;;18.91;70.10
69351;BME280;57106;51.446;-2.606;2023-07-31T10:52:48;100529.22;;;18.86;70.29
69351;BME280;57106;51.446;-2.606;2023-07-31T10:55:24;100537.44;;;18.87;70.28
69351;BME280;57106;51.446;-2.606;2023-07-31T10:57:38;100531.73;;;18.70;70.22
69351;BME280;57106;51.446;-2.606;2023-07-31T11:00:18;100534.20;;;18.58;70.98
69351;BME280;57106;51.446;-2.606;2023-07-31T11:02:29;100535.52;;;18.69;70.71
